Lodi, Ohio
Current Conditions -  °F | °C
As of 12:09 PM on Friday 28 Nov 2014 (Local Time) from KBJJ Reporting Station
Overcast Overcast  
Wind Chill: 15°   Ceiling: 2400
Heat Index: 24°   Visibility: 10mi
Dew Point: 16°   Wind: 8mph
Humidity: 71%   Direction: 220°SW
Pressure: 30.29"   Gusts: NA
Location:  41.03°N, 82.01°W
Report Text: KBJJ 281709Z AUTO 22007KT 10SM BKN024 OVC095 M04/M09 A3029 RMK AO2 T10441089 TSNO
Loading
Personal Weather Stations






























Interactive Weather Map New forecast layout! Learn more

10-Day Weather Forecast

Advertisements
Track Severe Weather on mobile